Aeroporto :
LOGIN :

Iscrizione | Disclaimer

   EN    FR    IT 

 










Sommario :    VFR   VFR Marginale   IFR   IFR Intensivo   IFR Molto Intensivo
Visibilità : 
Base nubi : 
>= 8 km
>= 3000ft
5 / 8 km
1000 / 3000 ft
1500m / 5 km
500 / 1000 ft
800 / 1500m
200 / 500 ft
< 800m
< 200 ft
Simboli :   Temporali  Nebbia  Neve Forte  Precipitazioni Forti  Vento > 20 kt
SIGMETs :   Varie  Temporali  Ghiacco  Turbolenza  Onda orograficha  Ceneri Vulcaniche







- Altitudine del aeroporto : 16 ft
- Codice IATA : SDR


LEXJ - Santander Cantabria

ULTIMO METAR :
  • 151800Z 05009KT 350V090 CAVOK 22/18 Q1017

METARs OBSOLETI :
  • 151730Z 04009KT 340V080 CAVOK 23/18 Q1017
  • 151700Z 05008KT 360V090 CAVOK 23/18 Q1017
  • 151630Z 05010KT 340V110 CAVOK 23/18 Q1017
  • 151600Z 05010KT 360V080 CAVOK 23/18 Q1017
  • 151530Z 04010KT 350V080 CAVOK 24/19 Q1017

TAF TAF LEXJ
Valido dal 15 a 15 ore il 16 a 15 ore UTC


151400Z 1515/1615 05010KT 9999 FEW030 TX24/1613Z TN14/1605Z
BECMG 1518/1520 VRB05KT
BECMG 1610/1612 03010KT
Nessun NOTAM noto per questo aeroporto.



MetMap, La meteo Aeronautica in un colpo d'occhio ! - Copyright ORBIFLY Dicembre 2007 - Disclaimer

ORBIFLY MET'MAP TEAM :

Programmazione e sviluppo : Alexandra Zaïnal
Concezione e sviluppo : Baudouin d'Aumeries
Co-Programmazione e sviluppo : Marc-Olivier Méhu
Supporto tecnico e logistico : Manuel Goepfert
Aiuto per la traduzione : Arnaldo La Scala

Contatto : metmap@orbifly.com




FONTI E CREDITI :

   NOAA